createdAt,value
2022-12-13T00:07:36.030Z,73.06
2022-12-13T00:12:39.099Z,72.74
2022-12-13T00:17:42.059Z,72.19
2022-12-13T00:22:52.935Z,72.17
2022-12-13T00:27:55.676Z,72.38
2022-12-13T00:32:58.442Z,71.91
2022-12-13T00:38:06.518Z,71.58
2022-12-13T00:48:31.091Z,71.86
2022-12-13T00:53:33.986Z,71.73
2022-12-13T00:58:37.134Z,71.30
2022-12-13T01:03:46.476Z,71.11
2022-12-13T01:08:51.023Z,71.28
2022-12-13T01:13:54.127Z,70.70
2022-12-13T01:19:03.378Z,70.50
2022-12-13T01:24:07.707Z,70.73
2022-12-13T01:29:10.739Z,70.31
2022-12-13T01:39:38.264Z,70.41
2022-12-13T01:56:12.326Z,70.55
2022-12-13T02:06:39.838Z,70.56
2022-12-13T02:11:45.506Z,70.62
2022-12-13T02:16:58.694Z,70.53
2022-12-13T02:22:22.729Z,70.59
2022-12-13T02:27:49.273Z,70.40
2022-12-13T02:49:04.260Z,70.19
2022-12-13T03:04:49.199Z,70.24
2022-12-13T03:09:59.918Z,70.43
2022-12-13T03:15:13.704Z,70.48
2022-12-13T03:20:26.927Z,70.44
2022-12-13T03:25:32.953Z,70.72
2022-12-13T03:30:36.189Z,70.38
2022-12-13T03:41:08.827Z,70.66
2022-12-13T03:46:12.196Z,70.68
2022-12-13T03:51:15.135Z,69.98
2022-12-13T03:56:23.291Z,70.15
2022-12-13T04:06:49.816Z,70.45
2022-12-13T04:17:12.315Z,70.35
2022-12-13T04:22:17.932Z,70.24
2022-12-13T04:32:42.667Z,70.40
2022-12-13T04:37:46.599Z,69.80
2022-12-13T04:42:49.323Z,69.59
2022-12-13T04:48:02.467Z,69.58
2022-12-13T04:53:05.248Z,69.88
2022-12-13T04:58:08.058Z,69.32
2022-12-13T05:03:16.627Z,69.16
2022-12-13T05:08:19.472Z,69.40
2022-12-13T05:13:22.334Z,69.07
2022-12-13T05:18:30.720Z,69.11
2022-12-13T05:23:34.222Z,69.60
2022-12-13T05:28:37.532Z,69.13
2022-12-13T05:33:45.763Z,68.96
2022-12-13T05:38:48.719Z,69.47
2022-12-13T05:43:52.076Z,68.89
2022-12-13T05:49:00.179Z,68.76
2022-12-13T05:54:03.022Z,69.27
2022-12-13T05:59:05.798Z,68.75
2022-12-13T06:04:22.474Z,68.96
2022-12-13T06:14:47.868Z,69.28
2022-12-13T06:19:50.881Z,69.07
2022-12-13T06:24:53.735Z,68.51
2022-12-13T06:30:02.767Z,68.62
2022-12-13T06:35:27.442Z,68.91
2022-12-13T06:40:29.161Z,68.83
2022-12-13T06:45:39.861Z,68.73
2022-12-13T07:01:24.251Z,68.91
2022-12-13T07:06:27.831Z,68.93
2022-12-13T07:11:32.353Z,68.09
2022-12-13T07:16:41.499Z,68.35
2022-12-13T07:21:44.808Z,68.65
2022-12-13T07:32:07.449Z,68.70
2022-12-13T07:37:30.189Z,68.19
2022-12-13T07:47:54.923Z,68.50
2022-12-13T07:52:57.715Z,68.23
2022-12-13T07:58:04.842Z,67.08
2022-12-13T08:08:39.925Z,67.80
2022-12-13T08:13:43.201Z,67.47
2022-12-13T08:18:46.330Z,67.22
2022-12-13T08:23:55.685Z,66.97
2022-12-13T08:28:58.483Z,67.67
2022-12-13T08:34:01.279Z,66.68
2022-12-13T08:44:30.413Z,67.80
2022-12-13T09:11:11.187Z,67.55
2022-12-13T09:16:26.573Z,67.35
2022-12-13T09:27:27.218Z,67.92
2022-12-13T09:32:32.852Z,67.77
2022-12-13T09:37:37.781Z,66.85
2022-12-13T09:48:23.080Z,67.52
2022-12-13T09:53:26.045Z,67.22
2022-12-13T09:58:36.674Z,66.47
2022-12-13T10:03:49.115Z,66.11
2022-12-13T10:14:21.137Z,67.13
2022-12-13T10:19:30.233Z,66.77
2022-12-13T10:30:27.743Z,66.82
2022-12-13T10:41:01.263Z,67.00
2022-12-13T10:51:23.935Z,65.70
2022-12-13T10:56:36.996Z,65.41
2022-12-13T11:01:40.011Z,64.09
2022-12-13T11:06:49.324Z,62.02
2022-12-13T11:22:41.652Z,63.73
2022-12-13T11:28:26.270Z,62.69
2022-12-13T11:33:47.681Z,63.11
2022-12-13T11:39:10.636Z,62.12
2022-12-13T11:44:19.164Z,63.04
2022-12-13T12:00:34.768Z,64.19
2022-12-13T12:05:42.246Z,63.85
2022-12-13T12:16:32.939Z,63.25
2022-12-13T12:22:12.853Z,63.59
2022-12-13T12:27:22.619Z,62.28
2022-12-13T12:32:41.234Z,63.86
2022-12-13T12:37:53.803Z,64.29
2022-12-13T12:54:20.208Z,65.58
2022-12-13T13:16:00.504Z,66.19
2022-12-13T13:21:35.695Z,66.56
2022-12-13T13:26:42.534Z,66.92
2022-12-13T13:37:51.539Z,67.60
2022-12-13T13:43:32.671Z,67.79
2022-12-13T13:48:50.150Z,68.18
2022-12-13T13:54:37.464Z,68.48
2022-12-13T14:00:26.381Z,68.69
2022-12-13T14:12:04.943Z,69.15
2022-12-13T14:22:38.588Z,69.42
2022-12-13T14:27:49.475Z,69.64
2022-12-13T14:38:23.873Z,70.13
2022-12-13T14:43:28.485Z,70.39
2022-12-13T14:48:39.917Z,70.72
2022-12-13T14:53:48.199Z,70.83
2022-12-13T14:58:55.342Z,71.01
2022-12-13T15:09:57.115Z,70.98
2022-12-13T15:30:59.001Z,71.14
2022-12-13T15:36:08.110Z,71.13
2022-12-13T15:41:20.095Z,71.07
2022-12-13T15:46:34.258Z,71.07
2022-12-13T15:51:55.671Z,71.12
2022-12-13T16:13:08.633Z,71.00
2022-12-13T16:18:18.446Z,71.15
2022-12-13T16:23:27.049Z,71.00
2022-12-13T16:28:36.220Z,71.09
2022-12-13T16:33:39.187Z,71.14
2022-12-13T16:38:43.979Z,71.08
2022-12-13T16:43:56.329Z,71.13
2022-12-13T16:54:26.286Z,71.30
2022-12-13T16:59:29.677Z,71.38
2022-12-13T17:04:32.466Z,71.26
2022-12-13T17:09:40.843Z,71.28
2022-12-13T17:14:44.006Z,71.24
2022-12-13T17:19:46.755Z,71.10
2022-12-13T17:30:13.438Z,71.25
2022-12-13T17:35:18.510Z,71.22
2022-12-13T17:45:48.883Z,71.22
2022-12-13T17:50:54.639Z,71.24
2022-12-13T17:55:58.080Z,70.78
2022-12-13T18:01:11.667Z,70.12
2022-12-13T18:11:36.579Z,70.14
2022-12-13T18:16:39.445Z,69.87
2022-12-13T18:21:42.797Z,69.23
2022-12-13T18:26:51.958Z,69.14
2022-12-13T18:31:54.926Z,69.23
2022-12-13T18:36:58.235Z,68.64
2022-12-13T18:52:39.563Z,69.09
2022-12-13T19:03:05.321Z,68.54
2022-12-13T19:08:08.285Z,68.26
2022-12-13T19:13:11.497Z,67.58
2022-12-13T19:23:34.984Z,68.18
2022-12-13T19:34:10.072Z,67.94
2022-12-13T19:49:48.644Z,68.02
2022-12-13T19:54:52.254Z,68.22
2022-12-13T20:10:43.161Z,68.47
2022-12-13T20:15:48.165Z,67.80
2022-12-13T20:26:14.805Z,67.79
2022-12-13T20:31:22.453Z,67.45
2022-12-13T20:36:27.175Z,66.90
2022-12-13T20:46:59.903Z,67.62
2022-12-13T20:52:03.817Z,67.49
2022-12-13T20:57:07.714Z,67.09
2022-12-13T21:07:32.438Z,67.43
2022-12-13T21:12:37.109Z,67.27
2022-12-13T21:17:40.245Z,66.41
2022-12-13T21:33:32.812Z,67.92
2022-12-13T21:38:36.945Z,67.91
2022-12-13T21:43:41.919Z,67.54
2022-12-13T21:48:53.803Z,67.65
2022-12-13T22:20:33.890Z,67.98
2022-12-13T22:25:37.620Z,67.97
2022-12-13T22:30:42.640Z,67.74
2022-12-13T22:35:51.012Z,67.84
2022-12-13T22:40:53.863Z,68.00
2022-12-13T22:46:03.727Z,68.08
2022-12-13T22:51:17.089Z,68.28
2022-12-13T22:56:22.105Z,68.40
2022-12-13T23:01:28.435Z,68.01
2022-12-13T23:06:39.481Z,67.91
2022-12-13T23:11:49.382Z,68.26
2022-12-13T23:16:53.260Z,68.26
2022-12-13T23:22:01.524Z,68.38
2022-12-13T23:27:05.998Z,68.50
2022-12-13T23:32:08.942Z,68.41
2022-12-13T23:37:18.075Z,68.61
2022-12-13T23:42:20.969Z,68.88
2022-12-13T23:52:42.951Z,68.92
